sensor_id;sensor_type;location;lat;lon;timestamp;temperature;humidity
20744;DHT22;56303;52.160;-0.428;2022-08-19T00:01:41;21.70;99.90
20744;DHT22;56303;52.160;-0.428;2022-08-19T00:04:11;21.80;99.90
20744;DHT22;56303;52.160;-0.428;2022-08-19T00:06:40;21.80;99.90
20744;DHT22;56303;52.160;-0.428;2022-08-19T00:09:10;21.70;99.90
20744;DHT22;56303;52.160;-0.428;2022-08-19T00:11:39;21.70;99.90
20744;DHT22;56303;52.160;-0.428;2022-08-19T00:14:07;21.80;99.90
20744;DHT22;56303;52.160;-0.428;2022-08-19T00:16:38;21.80;99.90
20744;DHT22;56303;52.160;-0.428;2022-08-19T00:19:06;21.80;99.90
20744;DHT22;56303;52.160;-0.428;2022-08-19T00:21:33;21.80;99.90
20744;DHT22;56303;52.160;-0.428;2022-08-19T00:24:09;21.70;99.90
20744;DHT22;56303;52.160;-0.428;2022-08-19T00:26:37;21.70;99.90
20744;DHT22;56303;52.160;-0.428;2022-08-19T00:29:06;21.80;99.90
20744;DHT22;56303;52.160;-0.428;2022-08-19T00:31:33;21.70;99.90
20744;DHT22;56303;52.160;-0.428;2022-08-19T00:34:00;21.50;99.90
20744;DHT22;56303;52.160;-0.428;2022-08-19T00:36:27;21.30;99.90
20744;DHT22;56303;52.160;-0.428;2022-08-19T00:38:55;21.30;99.90
20744;DHT22;56303;52.160;-0.428;2022-08-19T00:41:24;21.40;99.90
20744;DHT22;56303;52.160;-0.428;2022-08-19T00:46:26;21.40;99.90
20744;DHT22;56303;52.160;-0.428;2022-08-19T00:48:54;21.30;99.90
20744;DHT22;56303;52.160;-0.428;2022-08-19T00:51:24;21.50;99.90
20744;DHT22;56303;52.160;-0.428;2022-08-19T00:53:55;21.70;99.90
20744;DHT22;56303;52.160;-0.428;2022-08-19T00:56:23;21.40;99.90
20744;DHT22;56303;52.160;-0.428;2022-08-19T00:58:50;21.30;99.90
20744;DHT22;56303;52.160;-0.428;2022-08-19T01:01:17;21.40;99.90
20744;DHT22;56303;52.160;-0.428;2022-08-19T01:03:44;21.50;99.90
20744;DHT22;56303;52.160;-0.428;2022-08-19T01:06:25;21.40;99.90
20744;DHT22;56303;52.160;-0.428;2022-08-19T01:08:52;21.20;99.90
20744;DHT22;56303;52.160;-0.428;2022-08-19T01:11:22;21.40;99.90
20744;DHT22;56303;52.160;-0.428;2022-08-19T01:13:50;21.40;99.90
20744;DHT22;56303;52.160;-0.428;2022-08-19T01:16:22;21.40;99.90
20744;DHT22;56303;52.160;-0.428;2022-08-19T01:18:50;21.50;99.90
20744;DHT22;56303;52.160;-0.428;2022-08-19T01:21:45;21.30;99.90
20744;DHT22;56303;52.160;-0.428;2022-08-19T01:24:15;21.10;99.90
20744;DHT22;56303;52.160;-0.428;2022-08-19T01:26:43;21.10;99.90
20744;DHT22;56303;52.160;-0.428;2022-08-19T01:29:12;21.10;99.90
20744;DHT22;56303;52.160;-0.428;2022-08-19T01:31:40;21.20;99.90
20744;DHT22;56303;52.160;-0.428;2022-08-19T01:34:08;21.10;99.90
20744;DHT22;56303;52.160;-0.428;2022-08-19T01:36:43;21.20;99.90
20744;DHT22;56303;52.160;-0.428;2022-08-19T01:39:15;21.20;99.90
20744;DHT22;56303;52.160;-0.428;2022-08-19T01:41:42;21.20;99.90
20744;DHT22;56303;52.160;-0.428;2022-08-19T01:44:09;21.10;99.90
20744;DHT22;56303;52.160;-0.428;2022-08-19T01:46:46;21.00;99.90
20744;DHT22;56303;52.160;-0.428;2022-08-19T01:49:16;21.00;99.90
20744;DHT22;56303;52.160;-0.428;2022-08-19T01:51:43;20.90;99.90
20744;DHT22;56303;52.160;-0.428;2022-08-19T01:54:12;21.10;99.90
20744;DHT22;56303;52.160;-0.428;2022-08-19T01:56:58;21.20;99.90
20744;DHT22;56303;52.160;-0.428;2022-08-19T01:59:26;21.30;99.90
20744;DHT22;56303;52.160;-0.428;2022-08-19T02:01:53;21.30;99.90
20744;DHT22;56303;52.160;-0.428;2022-08-19T02:04:19;21.20;99.90
20744;DHT22;56303;52.160;-0.428;2022-08-19T02:06:47;21.40;99.90
20744;DHT22;56303;52.160;-0.428;2022-08-19T02:09:14;21.60;99.90
20744;DHT22;56303;52.160;-0.428;2022-08-19T02:11:42;21.60;99.90
20744;DHT22;56303;52.160;-0.428;2022-08-19T02:14:09;21.70;99.90
20744;DHT22;56303;52.160;-0.428;2022-08-19T02:16:37;21.70;99.90
20744;DHT22;56303;52.160;-0.428;2022-08-19T02:19:04;21.80;99.90
20744;DHT22;56303;52.160;-0.428;2022-08-19T02:21:31;21.70;99.90
20744;DHT22;56303;52.160;-0.428;2022-08-19T02:23:58;21.50;99.90
20744;DHT22;56303;52.160;-0.428;2022-08-19T02:26:25;21.60;99.90
20744;DHT22;56303;52.160;-0.428;2022-08-19T02:28:55;21.50;99.90
20744;DHT22;56303;52.160;-0.428;2022-08-19T02:31:25;21.30;99.90
20744;DHT22;56303;52.160;-0.428;2022-08-19T02:33:53;21.30;99.90
20744;DHT22;56303;52.160;-0.428;2022-08-19T02:36:24;21.30;99.90
20744;DHT22;56303;52.160;-0.428;2022-08-19T02:38:51;21.50;99.90
20744;DHT22;56303;52.160;-0.428;2022-08-19T02:41:32;21.60;99.90
20744;DHT22;56303;52.160;-0.428;2022-08-19T02:44:02;21.60;99.90
20744;DHT22;56303;52.160;-0.428;2022-08-19T02:46:50;21.70;99.90
20744;DHT22;56303;52.160;-0.428;2022-08-19T02:49:18;21.70;99.90
20744;DHT22;56303;52.160;-0.428;2022-08-19T02:51:47;21.60;99.90
20744;DHT22;56303;52.160;-0.428;2022-08-19T02:54:14;21.50;99.90
20744;DHT22;56303;52.160;-0.428;2022-08-19T02:56:43;21.40;99.90
20744;DHT22;56303;52.160;-0.428;2022-08-19T02:59:10;21.50;99.90
20744;DHT22;56303;52.160;-0.428;2022-08-19T03:01:40;21.40;99.90
20744;DHT22;56303;52.160;-0.428;2022-08-19T03:04:09;21.50;99.90
20744;DHT22;56303;52.160;-0.428;2022-08-19T03:06:39;21.40;99.90
20744;DHT22;56303;52.160;-0.428;2022-08-19T03:09:06;21.40;99.90
20744;DHT22;56303;52.160;-0.428;2022-08-19T03:11:33;21.40;99.90
20744;DHT22;56303;52.160;-0.428;2022-08-19T03:14:01;21.60;99.90
20744;DHT22;56303;52.160;-0.428;2022-08-19T03:16:32;21.70;99.90
20744;DHT22;56303;52.160;-0.428;2022-08-19T03:19:00;21.60;99.90
20744;DHT22;56303;52.160;-0.428;2022-08-19T03:21:30;21.40;99.90
20744;DHT22;56303;52.160;-0.428;2022-08-19T03:23:59;21.30;99.90
20744;DHT22;56303;52.160;-0.428;2022-08-19T03:26:27;21.30;99.90
20744;DHT22;56303;52.160;-0.428;2022-08-19T03:28:54;21.20;99.90
20744;DHT22;56303;52.160;-0.428;2022-08-19T03:31:25;21.40;99.90
20744;DHT22;56303;52.160;-0.428;2022-08-19T03:34:15;21.40;99.90
20744;DHT22;56303;52.160;-0.428;2022-08-19T03:36:44;21.40;99.90
20744;DHT22;56303;52.160;-0.428;2022-08-19T03:39:11;21.40;99.90
20744;DHT22;56303;52.160;-0.428;2022-08-19T03:41:41;21.50;99.90
20744;DHT22;56303;52.160;-0.428;2022-08-19T03:44:17;21.50;99.90
20744;DHT22;56303;52.160;-0.428;2022-08-19T03:46:50;21.60;99.90
20744;DHT22;56303;52.160;-0.428;2022-08-19T03:49:18;21.60;99.90
20744;DHT22;56303;52.160;-0.428;2022-08-19T03:51:46;21.70;99.90
20744;DHT22;56303;52.160;-0.428;2022-08-19T03:54:15;21.70;99.90
20744;DHT22;56303;52.160;-0.428;2022-08-19T03:56:45;21.60;99.90
20744;DHT22;56303;52.160;-0.428;2022-08-19T03:59:16;21.70;99.90
20744;DHT22;56303;52.160;-0.428;2022-08-19T04:01:43;21.70;99.90
20744;DHT22;56303;52.160;-0.428;2022-08-19T04:04:10;21.70;99.90
20744;DHT22;56303;52.160;-0.428;2022-08-19T04:06:39;21.70;99.90
20744;DHT22;56303;52.160;-0.428;2022-08-19T04:09:08;21.70;99.90
20744;DHT22;56303;52.160;-0.428;2022-08-19T04:11:45;21.70;99.90
20744;DHT22;56303;52.160;-0.428;2022-08-19T04:14:15;21.70;99.90
20744;DHT22;56303;52.160;-0.428;2022-08-19T04:16:43;21.70;99.90
20744;DHT22;56303;52.160;-0.428;2022-08-19T04:19:11;21.80;99.90
20744;DHT22;56303;52.160;-0.428;2022-08-19T04:21:38;21.70;99.90
20744;DHT22;56303;52.160;-0.428;2022-08-19T04:24:06;21.70;99.90
20744;DHT22;56303;52.160;-0.428;2022-08-19T04:26:35;21.60;99.90
20744;DHT22;56303;52.160;-0.428;2022-08-19T04:29:15;21.40;99.90
20744;DHT22;56303;52.160;-0.428;2022-08-19T04:31:42;21.30;99.90
20744;DHT22;56303;52.160;-0.428;2022-08-19T04:34:11;21.30;99.90
20744;DHT22;56303;52.160;-0.428;2022-08-19T04:36:40;20.90;99.90
20744;DHT22;56303;52.160;-0.428;2022-08-19T04:39:10;20.60;99.90
20744;DHT22;56303;52.160;-0.428;2022-08-19T04:41:38;19.90;99.90
20744;DHT22;56303;52.160;-0.428;2022-08-19T04:44:24;19.70;99.90
20744;DHT22;56303;52.160;-0.428;2022-08-19T04:46:52;19.50;99.90
20744;DHT22;56303;52.160;-0.428;2022-08-19T04:49:21;19.50;99.90
20744;DHT22;56303;52.160;-0.428;2022-08-19T04:51:50;19.70;99.90
20744;DHT22;56303;52.160;-0.428;2022-08-19T04:54:22;19.90;99.90
20744;DHT22;56303;52.160;-0.428;2022-08-19T04:57:04;19.90;99.90
20744;DHT22;56303;52.160;-0.428;2022-08-19T04:59:33;19.90;99.90
20744;DHT22;56303;52.160;-0.428;2022-08-19T05:02:01;20.10;99.90
20744;DHT22;56303;52.160;-0.428;2022-08-19T05:04:27;20.00;99.90
20744;DHT22;56303;52.160;-0.428;2022-08-19T05:06:58;20.20;99.90
20744;DHT22;56303;52.160;-0.428;2022-08-19T05:09:27;20.20;99.90
20744;DHT22;56303;52.160;-0.428;2022-08-19T05:12:14;20.20;99.90
20744;DHT22;56303;52.160;-0.428;2022-08-19T05:14:42;20.30;99.90
20744;DHT22;56303;52.160;-0.428;2022-08-19T05:17:09;20.30;99.90
20744;DHT22;56303;52.160;-0.428;2022-08-19T05:19:53;20.20;99.90
20744;DHT22;56303;52.160;-0.428;2022-08-19T05:22:40;20.20;99.90
20744;DHT22;56303;52.160;-0.428;2022-08-19T05:25:13;20.30;99.90
20744;DHT22;56303;52.160;-0.428;2022-08-19T05:27:42;20.30;99.90
20744;DHT22;56303;52.160;-0.428;2022-08-19T05:30:10;20.30;99.90
20744;DHT22;56303;52.160;-0.428;2022-08-19T05:32:39;20.30;99.90
20744;DHT22;56303;52.160;-0.428;2022-08-19T05:35:06;20.30;99.90
20744;DHT22;56303;52.160;-0.428;2022-08-19T05:37:33;20.30;99.90
20744;DHT22;56303;52.160;-0.428;2022-08-19T05:40:00;20.50;99.90
20744;DHT22;56303;52.160;-0.428;2022-08-19T05:42:28;20.50;99.90
20744;DHT22;56303;52.160;-0.428;2022-08-19T05:44:55;20.40;99.90
20744;DHT22;56303;52.160;-0.428;2022-08-19T05:47:23;20.40;99.90
20744;DHT22;56303;52.160;-0.428;2022-08-19T05:49:50;20.30;99.90
20744;DHT22;56303;52.160;-0.428;2022-08-19T05:52:18;20.40;99.90
20744;DHT22;56303;52.160;-0.428;2022-08-19T05:54:52;20.40;99.90
20744;DHT22;56303;52.160;-0.428;2022-08-19T05:57:22;20.40;99.90
20744;DHT22;56303;52.160;-0.428;2022-08-19T05:59:50;20.50;99.90
20744;DHT22;56303;52.160;-0.428;2022-08-19T06:02:23;20.40;99.90
20744;DHT22;56303;52.160;-0.428;2022-08-19T06:04:51;20.40;99.90
20744;DHT22;56303;52.160;-0.428;2022-08-19T06:07:18;20.50;99.90
20744;DHT22;56303;52.160;-0.428;2022-08-19T06:09:46;20.30;99.90
20744;DHT22;56303;52.160;-0.428;2022-08-19T06:12:27;20.30;99.90
20744;DHT22;56303;52.160;-0.428;2022-08-19T06:14:55;20.20;99.90
20744;DHT22;56303;52.160;-0.428;2022-08-19T06:17:27;20.40;99.90
20744;DHT22;56303;52.160;-0.428;2022-08-19T06:19:54;20.30;99.90
20744;DHT22;56303;52.160;-0.428;2022-08-19T06:22:20;20.30;99.90
20744;DHT22;56303;52.160;-0.428;2022-08-19T06:24:48;20.20;99.90
20744;DHT22;56303;52.160;-0.428;2022-08-19T06:27:19;20.10;99.90
20744;DHT22;56303;52.160;-0.428;2022-08-19T06:29:46;20.10;99.90
20744;DHT22;56303;52.160;-0.428;2022-08-19T06:32:15;20.00;99.90
20744;DHT22;56303;52.160;-0.428;2022-08-19T06:34:42;20.10;99.90
20744;DHT22;56303;52.160;-0.428;2022-08-19T06:37:11;20.00;99.90
20744;DHT22;56303;52.160;-0.428;2022-08-19T06:39:39;19.90;99.90
20744;DHT22;56303;52.160;-0.428;2022-08-19T06:42:07;20.10;99.90
20744;DHT22;56303;52.160;-0.428;2022-08-19T06:44:39;20.20;99.90
20744;DHT22;56303;52.160;-0.428;2022-08-19T06:47:11;20.20;99.90
20744;DHT22;56303;52.160;-0.428;2022-08-19T06:49:48;20.20;99.90
20744;DHT22;56303;52.160;-0.428;2022-08-19T06:52:16;20.10;99.90
20744;DHT22;56303;52.160;-0.428;2022-08-19T06:54:43;20.20;99.90
20744;DHT22;56303;52.160;-0.428;2022-08-19T06:57:24;20.20;99.90
20744;DHT22;56303;52.160;-0.428;2022-08-19T06:59:51;20.20;99.90
20744;DHT22;56303;52.160;-0.428;2022-08-19T07:02:19;20.20;99.90
20744;DHT22;56303;52.160;-0.428;2022-08-19T07:04:47;20.50;99.90
20744;DHT22;56303;52.160;-0.428;2022-08-19T07:07:20;20.50;99.90
20744;DHT22;56303;52.160;-0.428;2022-08-19T07:09:50;20.60;99.90
20744;DHT22;56303;52.160;-0.428;2022-08-19T07:12:28;20.50;99.90
20744;DHT22;56303;52.160;-0.428;2022-08-19T07:15:03;20.50;99.90
20744;DHT22;56303;52.160;-0.428;2022-08-19T07:17:30;20.20;99.90
20744;DHT22;56303;52.160;-0.428;2022-08-19T07:20:00;19.90;99.90
20744;DHT22;56303;52.160;-0.428;2022-08-19T07:22:38;19.90;99.90
20744;DHT22;56303;52.160;-0.428;2022-08-19T07:25:07;20.00;99.90
20744;DHT22;56303;52.160;-0.428;2022-08-19T07:27:35;19.90;99.90
20744;DHT22;56303;52.160;-0.428;2022-08-19T07:30:06;19.90;99.90
20744;DHT22;56303;52.160;-0.428;2022-08-19T07:32:38;19.90;99.90
20744;DHT22;56303;52.160;-0.428;2022-08-19T07:35:05;19.80;99.90
20744;DHT22;56303;52.160;-0.428;2022-08-19T07:37:32;19.90;99.90
20744;DHT22;56303;52.160;-0.428;2022-08-19T07:40:01;19.90;99.90
20744;DHT22;56303;52.160;-0.428;2022-08-19T07:42:28;19.90;99.90
20744;DHT22;56303;52.160;-0.428;2022-08-19T07:44:57;19.90;99.90
20744;DHT22;56303;52.160;-0.428;2022-08-19T07:47:24;20.00;99.90
20744;DHT22;56303;52.160;-0.428;2022-08-19T07:50:11;20.30;99.90
20744;DHT22;56303;52.160;-0.428;2022-08-19T07:52:38;20.40;99.90
20744;DHT22;56303;52.160;-0.428;2022-08-19T07:55:08;20.40;99.90
20744;DHT22;56303;52.160;-0.428;2022-08-19T07:57:55;20.40;99.90
20744;DHT22;56303;52.160;-0.428;2022-08-19T08:00:22;20.50;99.90
20744;DHT22;56303;52.160;-0.428;2022-08-19T08:02:51;20.60;99.90
20744;DHT22;56303;52.160;-0.428;2022-08-19T08:05:22;20.90;99.90
20744;DHT22;56303;52.160;-0.428;2022-08-19T08:08:11;21.10;99.90
20744;DHT22;56303;52.160;-0.428;2022-08-19T08:10:58;21.40;99.90
20744;DHT22;56303;52.160;-0.428;2022-08-19T08:13:25;21.70;99.90
20744;DHT22;56303;52.160;-0.428;2022-08-19T08:15:53;21.30;99.90
20744;DHT22;56303;52.160;-0.428;2022-08-19T08:18:22;21.10;99.90
20744;DHT22;56303;52.160;-0.428;2022-08-19T08:20:57;20.80;99.90
20744;DHT22;56303;52.160;-0.428;2022-08-19T08:23:25;20.90;99.90
20744;DHT22;56303;52.160;-0.428;2022-08-19T08:25:54;21.10;99.90
20744;DHT22;56303;52.160;-0.428;2022-08-19T08:28:24;21.20;99.90
20744;DHT22;56303;52.160;-0.428;2022-08-19T08:30:56;21.10;99.90
20744;DHT22;56303;52.160;-0.428;2022-08-19T08:33:25;20.80;99.90
20744;DHT22;56303;52.160;-0.428;2022-08-19T08:36:00;20.70;99.90
20744;DHT22;56303;52.160;-0.428;2022-08-19T08:38:30;20.60;99.90
20744;DHT22;56303;52.160;-0.428;2022-08-19T08:41:40;20.50;99.90
20744;DHT22;56303;52.160;-0.428;2022-08-19T08:47:09;20.50;99.90
20744;DHT22;56303;52.160;-0.428;2022-08-19T08:49:48;20.20;99.90
20744;DHT22;56303;52.160;-0.428;2022-08-19T08:52:33;20.30;99.90
20744;DHT22;56303;52.160;-0.428;2022-08-19T08:55:12;20.40;99.90
20744;DHT22;56303;52.160;-0.428;2022-08-19T09:00:19;20.80;99.90
20744;DHT22;56303;52.160;-0.428;2022-08-19T09:02:47;21.10;99.90
20744;DHT22;56303;52.160;-0.428;2022-08-19T09:05:17;21.30;99.90
20744;DHT22;56303;52.160;-0.428;2022-08-19T09:10:34;21.40;99.90
20744;DHT22;56303;52.160;-0.428;2022-08-19T09:16:00;20.60;99.90
20744;DHT22;56303;52.160;-0.428;2022-08-19T09:18:49;20.50;99.90
20744;DHT22;56303;52.160;-0.428;2022-08-19T09:21:21;20.60;99.90
20744;DHT22;56303;52.160;-0.428;2022-08-19T09:23:59;20.60;99.90
20744;DHT22;56303;52.160;-0.428;2022-08-19T09:26:26;20.70;99.90
20744;DHT22;56303;52.160;-0.428;2022-08-19T09:29:13;20.70;99.90
20744;DHT22;56303;52.160;-0.428;2022-08-19T09:31:40;20.70;99.90
20744;DHT22;56303;52.160;-0.428;2022-08-19T09:34:07;20.60;99.90
20744;DHT22;56303;52.160;-0.428;2022-08-19T09:36:50;20.70;99.90
20744;DHT22;56303;52.160;-0.428;2022-08-19T09:39:21;20.90;99.90
20744;DHT22;56303;52.160;-0.428;2022-08-19T09:41:48;21.10;99.90
20744;DHT22;56303;52.160;-0.428;2022-08-19T09:44:17;21.10;99.90
20744;DHT22;56303;52.160;-0.428;2022-08-19T09:46:45;21.00;99.90
20744;DHT22;56303;52.160;-0.428;2022-08-19T09:49:15;20.70;99.90
20744;DHT22;56303;52.160;-0.428;2022-08-19T09:51:44;20.30;99.90
20744;DHT22;56303;52.160;-0.428;2022-08-19T09:54:17;20.70;99.90
20744;DHT22;56303;52.160;-0.428;2022-08-19T09:56:54;20.90;99.90
20744;DHT22;56303;52.160;-0.428;2022-08-19T09:59:22;21.10;99.90
20744;DHT22;56303;52.160;-0.428;2022-08-19T10:01:49;20.70;99.90
20744;DHT22;56303;52.160;-0.428;2022-08-19T10:04:18;20.60;99.90
20744;DHT22;56303;52.160;-0.428;2022-08-19T10:06:54;21.00;99.90
20744;DHT22;56303;52.160;-0.428;2022-08-19T10:09:31;20.70;99.90
20744;DHT22;56303;52.160;-0.428;2022-08-19T10:12:02;20.70;99.90
20744;DHT22;56303;52.160;-0.428;2022-08-19T10:14:30;20.80;99.90
20744;DHT22;56303;52.160;-0.428;2022-08-19T10:16:57;20.90;99.90
20744;DHT22;56303;52.160;-0.428;2022-08-19T10:19:26;20.90;99.90
20744;DHT22;56303;52.160;-0.428;2022-08-19T10:21:55;21.10;99.90
20744;DHT22;56303;52.160;-0.428;2022-08-19T10:24:26;21.10;99.90
20744;DHT22;56303;52.160;-0.428;2022-08-19T10:26:54;21.20;99.90
20744;DHT22;56303;52.160;-0.428;2022-08-19T10:29:26;21.50;99.90
20744;DHT22;56303;52.160;-0.428;2022-08-19T10:32:04;22.00;99.90
20744;DHT22;56303;52.160;-0.428;2022-08-19T10:34:38;21.80;99.90
20744;DHT22;56303;52.160;-0.428;2022-08-19T10:37:15;21.90;99.90
20744;DHT22;56303;52.160;-0.428;2022-08-19T10:39:49;22.00;99.90
20744;DHT22;56303;52.160;-0.428;2022-08-19T10:42:16;22.00;99.90
20744;DHT22;56303;52.160;-0.428;2022-08-19T10:44:45;22.00;99.90
20744;DHT22;56303;52.160;-0.428;2022-08-19T10:47:13;22.10;99.90
20744;DHT22;56303;52.160;-0.428;2022-08-19T10:49:52;22.10;99.90
20744;DHT22;56303;52.160;-0.428;2022-08-19T10:52:46;21.80;99.90
20744;DHT22;56303;52.160;-0.428;2022-08-19T10:55:17;22.00;99.90
20744;DHT22;56303;52.160;-0.428;2022-08-19T10:58:02;22.10;99.90
20744;DHT22;56303;52.160;-0.428;2022-08-19T11:00:30;22.50;99.90
20744;DHT22;56303;52.160;-0.428;2022-08-19T11:02:58;22.20;99.90
20744;DHT22;56303;52.160;-0.428;2022-08-19T11:05:25;22.20;99.90
20744;DHT22;56303;52.160;-0.428;2022-08-19T11:07:52;22.40;99.90
20744;DHT22;56303;52.160;-0.428;2022-08-19T11:10:19;22.50;99.90
20744;DHT22;56303;52.160;-0.428;2022-08-19T11:12:48;22.60;99.90
20744;DHT22;56303;52.160;-0.428;2022-08-19T11:15:21;22.40;99.80
20744;DHT22;56303;52.160;-0.428;2022-08-19T11:17:48;22.10;98.20
20744;DHT22;56303;52.160;-0.428;2022-08-19T11:20:15;22.50;98.10
20744;DHT22;56303;52.160;-0.428;2022-08-19T11:22:42;22.50;98.90
20744;DHT22;56303;52.160;-0.428;2022-08-19T11:25:10;22.70;97.50
20744;DHT22;56303;52.160;-0.428;2022-08-19T11:27:39;22.90;97.50
20744;DHT22;56303;52.160;-0.428;2022-08-19T11:30:10;22.80;96.80
20744;DHT22;56303;52.160;-0.428;2022-08-19T11:32:40;22.70;97.20
20744;DHT22;56303;52.160;-0.428;2022-08-19T11:35:14;22.70;96.80
20744;DHT22;56303;52.160;-0.428;2022-08-19T11:37:41;22.60;96.90
20744;DHT22;56303;52.160;-0.428;2022-08-19T11:40:08;23.00;95.90
20744;DHT22;56303;52.160;-0.428;2022-08-19T11:42:35;22.70;95.50
20744;DHT22;56303;52.160;-0.428;2022-08-19T11:45:21;22.90;95.20
20744;DHT22;56303;52.160;-0.428;2022-08-19T11:47:48;22.90;95.60
20744;DHT22;56303;52.160;-0.428;2022-08-19T11:50:16;23.30;96.40
20744;DHT22;56303;52.160;-0.428;2022-08-19T11:52:44;23.20;95.30
20744;DHT22;56303;52.160;-0.428;2022-08-19T11:55:12;23.40;95.90
20744;DHT22;56303;52.160;-0.428;2022-08-19T11:57:40;23.30;95.50
20744;DHT22;56303;52.160;-0.428;2022-08-19T12:00:08;23.30;96.60
20744;DHT22;56303;52.160;-0.428;2022-08-19T12:02:36;23.60;96.40
20744;DHT22;56303;52.160;-0.428;2022-08-19T12:05:03;23.60;95.40
20744;DHT22;56303;52.160;-0.428;2022-08-19T12:07:35;23.50;95.90
20744;DHT22;56303;52.160;-0.428;2022-08-19T12:10:02;23.00;96.50
20744;DHT22;56303;52.160;-0.428;2022-08-19T12:12:30;23.50;96.00
20744;DHT22;56303;52.160;-0.428;2022-08-19T12:14:57;23.70;95.50
20744;DHT22;56303;52.160;-0.428;2022-08-19T12:17:28;23.70;95.50
20744;DHT22;56303;52.160;-0.428;2022-08-19T12:19:55;24.50;95.90
20744;DHT22;56303;52.160;-0.428;2022-08-19T12:22:22;24.50;94.30
20744;DHT22;56303;52.160;-0.428;2022-08-19T12:24:49;24.20;95.00
20744;DHT22;56303;52.160;-0.428;2022-08-19T12:27:18;23.80;96.10
20744;DHT22;56303;52.160;-0.428;2022-08-19T12:30:07;24.30;96.00
20744;DHT22;56303;52.160;-0.428;2022-08-19T12:32:34;24.40;96.50
20744;DHT22;56303;52.160;-0.428;2022-08-19T12:35:01;24.90;95.00
20744;DHT22;56303;52.160;-0.428;2022-08-19T12:37:28;24.60;95.30
20744;DHT22;56303;52.160;-0.428;2022-08-19T12:39:56;24.90;94.80
20744;DHT22;56303;52.160;-0.428;2022-08-19T12:42:23;25.10;93.70
20744;DHT22;56303;52.160;-0.428;2022-08-19T12:44:50;24.80;92.70
20744;DHT22;56303;52.160;-0.428;2022-08-19T12:47:18;25.00;92.40
20744;DHT22;56303;52.160;-0.428;2022-08-19T12:49:45;24.40;94.30
20744;DHT22;56303;52.160;-0.428;2022-08-19T12:52:22;24.80;94.00
20744;DHT22;56303;52.160;-0.428;2022-08-19T12:54:51;24.90;94.20
20744;DHT22;56303;52.160;-0.428;2022-08-19T12:57:21;24.70;94.40
20744;DHT22;56303;52.160;-0.428;2022-08-19T12:59:57;25.30;93.70
20744;DHT22;56303;52.160;-0.428;2022-08-19T13:02:24;25.30;93.40
20744;DHT22;56303;52.160;-0.428;2022-08-19T13:04:53;25.50;92.80
20744;DHT22;56303;52.160;-0.428;2022-08-19T13:07:20;25.30;93.30
20744;DHT22;56303;52.160;-0.428;2022-08-19T13:09:51;25.60;92.10
20744;DHT22;56303;52.160;-0.428;2022-08-19T13:12:18;25.20;93.20
20744;DHT22;56303;52.160;-0.428;2022-08-19T13:14:50;25.60;92.40
20744;DHT22;56303;52.160;-0.428;2022-08-19T13:17:19;26.00;92.10
20744;DHT22;56303;52.160;-0.428;2022-08-19T13:19:47;25.80;91.40
20744;DHT22;56303;52.160;-0.428;2022-08-19T13:22:14;25.90;91.50
20744;DHT22;56303;52.160;-0.428;2022-08-19T13:24:41;26.20;91.50
20744;DHT22;56303;52.160;-0.428;2022-08-19T13:27:13;25.60;91.30
20744;DHT22;56303;52.160;-0.428;2022-08-19T13:29:41;26.10;91.20
20744;DHT22;56303;52.160;-0.428;2022-08-19T13:32:28;25.60;90.90
20744;DHT22;56303;52.160;-0.428;2022-08-19T13:35:16;25.60;91.00
20744;DHT22;56303;52.160;-0.428;2022-08-19T13:37:43;25.70;90.50
20744;DHT22;56303;52.160;-0.428;2022-08-19T13:40:20;26.20;90.60
20744;DHT22;56303;52.160;-0.428;2022-08-19T13:42:51;26.40;90.30
20744;DHT22;56303;52.160;-0.428;2022-08-19T13:45:22;25.60;90.50
20744;DHT22;56303;52.160;-0.428;2022-08-19T13:47:52;25.90;91.10
20744;DHT22;56303;52.160;-0.428;2022-08-19T13:50:30;26.10;90.00
20744;DHT22;56303;52.160;-0.428;2022-08-19T13:52:58;26.40;90.10
20744;DHT22;56303;52.160;-0.428;2022-08-19T13:55:26;27.10;88.90
20744;DHT22;56303;52.160;-0.428;2022-08-19T13:57:56;27.50;87.50
20744;DHT22;56303;52.160;-0.428;2022-08-19T14:00:24;27.00;87.60
20744;DHT22;56303;52.160;-0.428;2022-08-19T14:02:54;26.60;88.90
20744;DHT22;56303;52.160;-0.428;2022-08-19T14:05:23;26.10;89.90
20744;DHT22;56303;52.160;-0.428;2022-08-19T14:07:50;25.60;90.50
20744;DHT22;56303;52.160;-0.428;2022-08-19T14:10:18;25.40;91.30
20744;DHT22;56303;52.160;-0.428;2022-08-19T14:12:46;26.00;91.30
20744;DHT22;56303;52.160;-0.428;2022-08-19T14:15:13;25.70;91.30
20744;DHT22;56303;52.160;-0.428;2022-08-19T14:17:43;26.30;91.50
20744;DHT22;56303;52.160;-0.428;2022-08-19T14:20:12;26.80;89.60
20744;DHT22;56303;52.160;-0.428;2022-08-19T14:22:45;26.60;87.80
20744;DHT22;56303;52.160;-0.428;2022-08-19T14:25:18;26.40;87.60
20744;DHT22;56303;52.160;-0.428;2022-08-19T14:27:46;26.60;88.70
20744;DHT22;56303;52.160;-0.428;2022-08-19T14:30:15;25.90;89.30
20744;DHT22;56303;52.160;-0.428;2022-08-19T14:32:44;25.80;88.90
20744;DHT22;56303;52.160;-0.428;2022-08-19T14:35:14;26.10;89.50
20744;DHT22;56303;52.160;-0.428;2022-08-19T14:37:42;25.80;90.00
20744;DHT22;56303;52.160;-0.428;2022-08-19T14:40:16;26.40;88.30
20744;DHT22;56303;52.160;-0.428;2022-08-19T14:42:44;26.80;87.70
20744;DHT22;56303;52.160;-0.428;2022-08-19T14:45:11;26.70;85.90
20744;DHT22;56303;52.160;-0.428;2022-08-19T14:47:38;26.10;87.70
20744;DHT22;56303;52.160;-0.428;2022-08-19T14:50:10;25.90;88.30
20744;DHT22;56303;52.160;-0.428;2022-08-19T14:52:45;25.90;88.40
20744;DHT22;56303;52.160;-0.428;2022-08-19T14:55:16;26.30;88.80
20744;DHT22;56303;52.160;-0.428;2022-08-19T14:57:44;27.00;88.10
20744;DHT22;56303;52.160;-0.428;2022-08-19T15:00:11;26.80;86.20
20744;DHT22;56303;52.160;-0.428;2022-08-19T15:02:40;27.00;85.10
20744;DHT22;56303;52.160;-0.428;2022-08-19T15:05:08;26.70;84.70
20744;DHT22;56303;52.160;-0.428;2022-08-19T15:07:36;26.80;84.30
20744;DHT22;56303;52.160;-0.428;2022-08-19T15:10:05;27.40;82.80
20744;DHT22;56303;52.160;-0.428;2022-08-19T15:12:38;27.40;81.80
20744;DHT22;56303;52.160;-0.428;2022-08-19T15:15:11;26.80;83.30
20744;DHT22;56303;52.160;-0.428;2022-08-19T15:17:42;27.70;83.20
20744;DHT22;56303;52.160;-0.428;2022-08-19T15:20:18;27.50;82.60
20744;DHT22;56303;52.160;-0.428;2022-08-19T15:22:46;26.40;84.60
20744;DHT22;56303;52.160;-0.428;2022-08-19T15:25:15;26.70;84.50
20744;DHT22;56303;52.160;-0.428;2022-08-19T15:27:42;27.00;83.90
20744;DHT22;56303;52.160;-0.428;2022-08-19T15:30:11;27.30;84.20
20744;DHT22;56303;52.160;-0.428;2022-08-19T15:32:38;27.90;81.80
20744;DHT22;56303;52.160;-0.428;2022-08-19T15:35:07;28.10;81.20
20744;DHT22;56303;52.160;-0.428;2022-08-19T15:37:34;25.90;84.50
20744;DHT22;56303;52.160;-0.428;2022-08-19T15:40:04;26.10;86.90
20744;DHT22;56303;52.160;-0.428;2022-08-19T15:42:32;26.60;84.40
20744;DHT22;56303;52.160;-0.428;2022-08-19T15:44:59;26.60;83.90
20744;DHT22;56303;52.160;-0.428;2022-08-19T15:47:30;26.60;83.90
20744;DHT22;56303;52.160;-0.428;2022-08-19T15:50:18;26.50;84.00